createdAt,value
2017-08-17T00:00:39.533Z,94.50
2017-08-17T00:03:07.019Z,94.50
2017-08-17T00:05:34.483Z,93.70
2017-08-17T00:08:01.963Z,93.80
2017-08-17T00:10:29.418Z,94.60
2017-08-17T00:12:56.900Z,94.50
2017-08-17T00:15:24.359Z,94.10
2017-08-17T00:17:51.847Z,94.00
2017-08-17T00:20:19.307Z,94.20
2017-08-17T00:22:46.770Z,94.20
2017-08-17T00:25:14.256Z,94.00
2017-08-17T00:27:41.728Z,93.80
2017-08-17T00:30:09.188Z,94.30
2017-08-17T00:32:36.663Z,94.40
2017-08-17T00:35:04.123Z,94.20
2017-08-17T00:37:31.583Z,94.60
2017-08-17T00:39:59.060Z,94.50
2017-08-17T00:42:26.526Z,94.80
2017-08-17T00:44:54.759Z,95.20
2017-08-17T00:47:22.238Z,95.10
2017-08-17T00:49:49.710Z,95.30
2017-08-17T00:52:17.268Z,95.20
2017-08-17T00:54:44.746Z,95.00
2017-08-17T00:57:12.979Z,94.90
2017-08-17T00:59:40.455Z,94.90
2017-08-17T01:02:07.911Z,94.90
2017-08-17T01:04:35.390Z,94.70
2017-08-17T01:07:03.636Z,94.90
2017-08-17T01:09:31.123Z,94.90
2017-08-17T01:11:58.575Z,95.20
2017-08-17T01:14:26.821Z,94.90
2017-08-17T01:16:54.282Z,94.90
2017-08-17T01:19:21.752Z,94.70
2017-08-17T01:21:49.214Z,94.60
2017-08-17T01:24:17.438Z,94.60
2017-08-17T01:26:44.914Z,94.60
2017-08-17T01:29:12.386Z,94.80
2017-08-17T01:31:39.847Z,95.00
2017-08-17T01:34:07.318Z,94.70
2017-08-17T01:36:35.569Z,95.30
2017-08-17T01:39:03.036Z,95.30
2017-08-17T01:41:30.499Z,95.30
2017-08-17T01:43:57.980Z,95.30
2017-08-17T01:46:25.430Z,95.70
2017-08-17T01:48:52.910Z,95.60
2017-08-17T01:51:20.367Z,95.70
2017-08-17T01:53:47.846Z,95.30
2017-08-17T01:56:15.307Z,95.40
2017-08-17T01:58:42.791Z,95.30
2017-08-17T02:01:10.280Z,95.50
2017-08-17T02:03:37.731Z,95.60
2017-08-17T02:06:05.211Z,95.50
2017-08-17T02:08:32.671Z,95.20
2017-08-17T02:11:00.134Z,95.10
2017-08-17T02:13:27.614Z,95.50
2017-08-17T02:15:55.080Z,95.20
2017-08-17T02:18:22.555Z,95.20
2017-08-17T02:20:50.779Z,95.30
2017-08-17T02:23:18.255Z,95.30
2017-08-17T02:25:45.715Z,95.20
2017-08-17T02:28:13.195Z,95.20
2017-08-17T02:30:41.414Z,95.50
2017-08-17T02:33:08.898Z,95.20
2017-08-17T02:35:36.360Z,95.20
2017-08-17T02:38:03.818Z,95.10
2017-08-17T02:40:31.301Z,95.20
2017-08-17T02:42:58.789Z,95.30
2017-08-17T02:45:26.270Z,95.10
2017-08-17T02:47:53.733Z,95.00
2017-08-17T02:50:21.214Z,95.10
2017-08-17T02:52:48.682Z,95.10
2017-08-17T02:55:16.917Z,95.00
2017-08-17T02:57:44.379Z,95.00
2017-08-17T03:00:11.851Z,95.50
2017-08-17T03:02:39.326Z,95.50
2017-08-17T03:05:07.546Z,95.60
2017-08-17T03:07:35.011Z,95.60
2017-08-17T03:10:02.495Z,95.80
2017-08-17T03:12:29.963Z,95.70
2017-08-17T03:14:58.206Z,95.70
2017-08-17T03:17:25.664Z,95.70
2017-08-17T03:19:53.123Z,95.30
2017-08-17T03:22:20.599Z,95.30
2017-08-17T03:24:48.078Z,95.50
2017-08-17T03:27:16.315Z,95.70
2017-08-17T03:29:43.782Z,95.70
2017-08-17T03:32:11.240Z,95.80
2017-08-17T03:34:38.718Z,96.00
2017-08-17T03:37:06.963Z,95.80
2017-08-17T03:39:34.459Z,95.80
2017-08-17T03:42:01.921Z,95.60
2017-08-17T03:44:29.400Z,95.40
2017-08-17T03:46:56.874Z,95.40
2017-08-17T03:49:24.340Z,95.20
2017-08-17T03:51:51.811Z,95.40
2017-08-17T03:54:19.275Z,95.40
2017-08-17T03:56:46.763Z,95.70
2017-08-17T03:59:14.234Z,95.90
2017-08-17T04:01:41.698Z,96.00
2017-08-17T04:04:09.175Z,95.80
2017-08-17T04:06:36.635Z,95.90
2017-08-17T04:09:04.107Z,95.80
2017-08-17T04:11:31.567Z,96.30
2017-08-17T04:13:59.046Z,96.40
2017-08-17T04:16:27.271Z,96.20
2017-08-17T04:18:54.740Z,96.10
2017-08-17T04:21:22.219Z,96.20
2017-08-17T04:23:50.447Z,96.30
2017-08-17T04:26:17.919Z,96.00
2017-08-17T04:28:45.390Z,95.70
2017-08-17T04:31:12.847Z,95.70
2017-08-17T04:33:40.342Z,95.80
2017-08-17T04:36:08.558Z,95.90
2017-08-17T04:38:36.039Z,95.90
2017-08-17T04:41:03.494Z,96.10
2017-08-17T04:43:30.986Z,96.20
2017-08-17T04:45:58.468Z,95.90
2017-08-17T04:48:25.928Z,95.80
2017-08-17T04:50:53.403Z,95.60
2017-08-17T04:53:20.878Z,95.30
2017-08-17T04:55:48.346Z,95.30
2017-08-17T04:58:34.391Z,95.40
2017-08-17T05:01:01.867Z,95.20
2017-08-17T05:03:29.327Z,95.20
2017-08-17T05:05:56.799Z,95.10
2017-08-17T05:08:24.291Z,95.10
2017-08-17T05:10:51.765Z,95.00
2017-08-17T05:13:19.226Z,95.00
2017-08-17T05:15:46.702Z,95.00
2017-08-17T05:18:14.162Z,95.10
2017-08-17T05:20:41.623Z,95.10
2017-08-17T05:23:09.097Z,94.70
2017-08-17T05:25:36.555Z,94.70
2017-08-17T05:28:04.032Z,94.50
2017-08-17T05:30:32.267Z,94.10
2017-08-17T05:32:59.723Z,94.10
2017-08-17T05:35:27.215Z,94.20
2017-08-17T05:37:55.460Z,94.20
2017-08-17T05:40:22.918Z,94.20
2017-08-17T05:42:50.395Z,94.40
2017-08-17T05:45:18.642Z,94.20
2017-08-17T05:47:46.122Z,94.20
2017-08-17T05:50:13.590Z,94.40
2017-08-17T05:52:41.828Z,94.70
2017-08-17T05:55:09.286Z,94.70
2017-08-17T05:57:36.775Z,94.60
2017-08-17T06:00:04.997Z,94.30
2017-08-17T06:02:32.470Z,94.20
2017-08-17T06:04:59.931Z,94.20
2017-08-17T06:07:27.403Z,94.70
2017-08-17T06:09:54.875Z,94.40
2017-08-17T06:12:23.103Z,94.30
2017-08-17T06:14:50.579Z,94.30
2017-08-17T06:17:18.039Z,94.30
2017-08-17T06:19:45.518Z,94.20
2017-08-17T06:22:13.762Z,94.30
2017-08-17T06:24:41.227Z,94.30
2017-08-17T06:27:08.690Z,94.20
2017-08-17T06:29:36.183Z,94.20
2017-08-17T06:32:03.656Z,94.60
2017-08-17T06:34:31.118Z,94.60
2017-08-17T06:36:58.583Z,94.40
2017-08-17T06:39:26.070Z,94.30
2017-08-17T06:41:53.518Z,93.90
2017-08-17T06:44:20.991Z,94.00
2017-08-17T06:46:48.466Z,93.70
2017-08-17T06:49:15.944Z,94.00
2017-08-17T06:51:43.423Z,93.80
2017-08-17T06:54:10.882Z,93.60
2017-08-17T06:56:38.362Z,93.60
2017-08-17T06:59:05.830Z,93.50
2017-08-17T07:01:33.287Z,93.60
2017-08-17T07:04:01.541Z,93.90
2017-08-17T07:06:28.991Z,93.80
2017-08-17T07:08:56.456Z,93.70
2017-08-17T07:11:23.927Z,93.50
2017-08-17T07:13:51.408Z,93.30
2017-08-17T07:16:19.635Z,93.20
2017-08-17T07:18:47.115Z,93.10
2017-08-17T07:21:14.582Z,92.80
2017-08-17T07:23:42.820Z,92.10
2017-08-17T07:26:10.280Z,92.10
2017-08-17T07:28:37.760Z,92.00
2017-08-17T07:31:05.247Z,91.80
2017-08-17T07:33:32.735Z,91.10
2017-08-17T07:36:00.207Z,91.30
2017-08-17T07:38:27.679Z,91.00
2017-08-17T07:40:55.152Z,91.30
2017-08-17T07:43:23.386Z,91.40
2017-08-17T07:45:50.851Z,91.00
2017-08-17T07:48:18.327Z,90.80
2017-08-17T07:50:45.941Z,90.40
2017-08-17T07:53:13.403Z,90.60
2017-08-17T07:55:40.895Z,90.60
2017-08-17T07:58:08.360Z,90.00
2017-08-17T08:00:35.838Z,90.30
2017-08-17T08:03:04.066Z,90.20
2017-08-17T08:05:31.550Z,90.20
2017-08-17T08:07:59.015Z,90.00
2017-08-17T08:10:27.260Z,89.80
2017-08-17T08:12:54.727Z,90.20
2017-08-17T08:15:22.203Z,90.20
2017-08-17T08:17:50.441Z,89.80
2017-08-17T08:20:17.900Z,89.70
2017-08-17T08:22:45.372Z,89.50
2017-08-17T08:25:12.839Z,89.30
2017-08-17T08:27:40.322Z,89.40
2017-08-17T08:30:07.778Z,88.90
2017-08-17T08:32:35.259Z,89.30
2017-08-17T08:35:02.742Z,89.40
2017-08-17T08:37:31.439Z,89.00
2017-08-17T08:39:58.898Z,88.80
2017-08-17T08:42:26.370Z,88.50
2017-08-17T08:44:54.611Z,88.20
2017-08-17T08:47:22.103Z,88.10
2017-08-17T08:49:50.358Z,87.30
2017-08-17T08:52:17.831Z,87.30
2017-08-17T08:54:46.069Z,86.80
2017-08-17T08:57:13.524Z,86.70
2017-08-17T08:59:40.999Z,87.20
2017-08-17T09:02:08.459Z,85.90
2017-08-17T09:04:35.930Z,85.00
2017-08-17T09:07:04.163Z,84.90
2017-08-17T09:09:31.630Z,84.80
2017-08-17T09:11:59.091Z,84.30
2017-08-17T09:14:26.563Z,85.50
2017-08-17T09:16:54.035Z,85.10
2017-08-17T09:19:22.249Z,84.90
2017-08-17T09:21:49.725Z,84.60
2017-08-17T09:24:17.178Z,84.20
2017-08-17T09:26:44.643Z,84.60
2017-08-17T09:29:12.115Z,83.70
2017-08-17T09:31:39.575Z,83.10
2017-08-17T09:34:07.038Z,82.60
2017-08-17T09:36:34.510Z,83.20
2017-08-17T09:39:02.762Z,82.90
2017-08-17T09:41:30.235Z,82.80
2017-08-17T09:43:58.452Z,82.20
2017-08-17T09:46:25.939Z,82.20
2017-08-17T09:48:53.384Z,82.90
2017-08-17T09:51:20.834Z,82.60
2017-08-17T09:53:48.323Z,82.50
2017-08-17T09:56:15.770Z,82.20
2017-08-17T09:58:43.234Z,81.20
2017-08-17T10:01:10.710Z,82.70
2017-08-17T10:03:38.939Z,81.50
2017-08-17T10:06:06.415Z,81.50
2017-08-17T10:08:33.870Z,81.80
2017-08-17T10:11:01.343Z,80.20
2017-08-17T10:13:29.559Z,80.60
2017-08-17T10:15:57.023Z,80.30
2017-08-17T10:18:24.507Z,75.20
2017-08-17T10:20:51.976Z,74.20
2017-08-17T10:23:19.447Z,73.40
2017-08-17T10:25:47.667Z,70.40
2017-08-17T10:28:15.219Z,70.20
2017-08-17T10:30:42.665Z,69.00
2017-08-17T10:33:10.143Z,69.20
2017-08-17T10:35:37.598Z,67.60
2017-08-17T10:38:05.067Z,69.20
2017-08-17T10:40:32.535Z,68.10
2017-08-17T10:43:00.003Z,67.80
2017-08-17T10:45:27.459Z,67.80
2017-08-17T10:47:54.912Z,67.70
2017-08-17T10:50:22.383Z,67.20
2017-08-17T10:52:50.607Z,65.10
2017-08-17T10:55:19.886Z,64.40
2017-08-17T10:57:47.346Z,65.60
2017-08-17T11:00:14.816Z,63.80
2017-08-17T11:02:42.285Z,64.10
2017-08-17T11:05:09.750Z,63.60
2017-08-17T11:07:37.218Z,65.10
2017-08-17T11:10:04.679Z,64.50
2017-08-17T11:12:32.147Z,63.50
2017-08-17T11:15:00.383Z,65.90
2017-08-17T11:17:27.863Z,65.10
2017-08-17T11:19:55.323Z,62.50
2017-08-17T11:22:22.775Z,61.80
2017-08-17T11:24:50.275Z,61.30
2017-08-17T11:27:17.724Z,62.00
2017-08-17T11:29:45.951Z,61.70
2017-08-17T11:32:13.427Z,61.70
2017-08-17T11:34:40.900Z,62.50
2017-08-17T11:37:09.122Z,62.80
2017-08-17T11:39:36.607Z,62.70
2017-08-17T11:42:31.910Z,62.40
2017-08-17T11:44:59.383Z,63.50
2017-08-17T11:47:26.834Z,64.00
2017-08-17T11:49:54.308Z,62.90
2017-08-17T11:52:21.786Z,62.80
2017-08-17T11:54:49.258Z,64.80
2017-08-17T11:57:16.719Z,65.00
2017-08-17T11:59:44.197Z,68.00
2017-08-17T12:02:11.643Z,66.10
2017-08-17T12:04:39.111Z,65.70
2017-08-17T12:07:06.582Z,65.30
2017-08-17T12:09:34.039Z,65.60
2017-08-17T12:12:01.520Z,63.10
2017-08-17T12:14:29.740Z,64.00
2017-08-17T12:16:57.219Z,63.90
2017-08-17T12:19:24.683Z,63.60
2017-08-17T12:21:52.162Z,63.70
2017-08-17T12:24:20.384Z,63.10
2017-08-17T12:26:47.871Z,63.10
2017-08-17T12:29:15.323Z,62.50
2017-08-17T12:31:42.796Z,63.70
2017-08-17T12:34:10.251Z,64.50
2017-08-17T12:36:37.710Z,64.40
2017-08-17T12:39:05.191Z,64.00
2017-08-17T12:41:32.656Z,66.50
2017-08-17T12:44:00.120Z,67.60
2017-08-17T12:46:27.574Z,68.90
2017-08-17T12:48:55.052Z,70.30
2017-08-17T12:51:22.519Z,72.20
2017-08-17T12:53:50.003Z,73.00
2017-08-17T12:56:17.470Z,72.60
2017-08-17T12:58:44.941Z,71.90
2017-08-17T13:01:12.418Z,71.30
2017-08-17T13:03:39.875Z,70.60
2017-08-17T13:06:07.355Z,70.50
2017-08-17T13:08:34.823Z,69.80
2017-08-17T13:11:02.278Z,70.50
2017-08-17T13:13:29.750Z,69.90
2017-08-17T13:15:57.216Z,71.30
2017-08-17T13:18:25.462Z,72.50
2017-08-17T13:20:52.926Z,72.20
2017-08-17T13:23:20.390Z,71.80
2017-08-17T13:25:47.866Z,72.60
2017-08-17T13:28:16.089Z,73.60
2017-08-17T13:30:43.558Z,73.50
2017-08-17T13:33:11.015Z,74.10
2017-08-17T13:35:38.548Z,74.40
2017-08-17T13:38:05.991Z,74.80
2017-08-17T13:40:33.463Z,75.20
2017-08-17T13:43:01.018Z,75.30
2017-08-17T13:45:28.463Z,75.30
2017-08-17T13:47:55.943Z,75.80
2017-08-17T13:50:23.410Z,75.90
2017-08-17T13:52:50.886Z,75.80
2017-08-17T13:55:18.354Z,76.00
2017-08-17T13:57:45.830Z,76.10
2017-08-17T14:00:14.068Z,74.70
2017-08-17T14:02:41.519Z,74.70
2017-08-17T14:05:08.991Z,74.40
2017-08-17T14:07:36.459Z,74.20
2017-08-17T14:10:04.715Z,75.90
2017-08-17T14:12:32.166Z,75.20
2017-08-17T14:14:59.640Z,75.30
2017-08-17T14:17:27.099Z,75.40
2017-08-17T14:19:54.609Z,75.00
2017-08-17T14:22:22.063Z,74.70
2017-08-17T14:24:49.617Z,75.40
2017-08-17T14:27:17.076Z,75.40
2017-08-17T14:29:44.534Z,74.60
2017-08-17T14:32:12.016Z,75.30
2017-08-17T14:34:39.504Z,74.90
2017-08-17T14:37:07.738Z,74.00
2017-08-17T14:39:35.206Z,74.00
2017-08-17T14:42:02.671Z,74.70
2017-08-17T14:44:30.138Z,74.70
2017-08-17T14:46:57.607Z,74.50
2017-08-17T14:49:25.827Z,75.50
2017-08-17T14:51:53.294Z,75.30
2017-08-17T14:54:20.749Z,75.50
2017-08-17T14:56:48.223Z,75.70
2017-08-17T14:59:15.671Z,75.90
2017-08-17T15:01:43.146Z,76.30
2017-08-17T15:04:10.606Z,76.60
2017-08-17T15:06:38.071Z,76.40
2017-08-17T15:09:06.327Z,78.00
2017-08-17T15:11:33.771Z,77.80
2017-08-17T15:14:01.248Z,78.40
2017-08-17T15:16:28.724Z,78.90
2017-08-17T15:18:56.202Z,78.90
2017-08-17T15:21:23.672Z,79.20
2017-08-17T15:23:51.174Z,79.10
2017-08-17T15:26:18.642Z,79.60
2017-08-17T15:28:46.871Z,80.20
2017-08-17T15:31:14.347Z,80.10
2017-08-17T15:33:41.803Z,81.00
2017-08-17T15:36:09.267Z,81.30
2017-08-17T15:38:36.722Z,82.70
2017-08-17T15:41:04.186Z,83.50
2017-08-17T15:43:31.654Z,83.60
2017-08-17T15:45:59.879Z,83.90
2017-08-17T15:48:27.351Z,83.90
2017-08-17T15:50:54.823Z,83.50
2017-08-17T15:53:22.275Z,83.30
2017-08-17T15:55:49.750Z,83.30
2017-08-17T15:58:17.970Z,83.40
2017-08-17T16:00:45.458Z,83.40
2017-08-17T16:03:12.931Z,82.50
2017-08-17T16:05:41.179Z,82.70
2017-08-17T16:08:08.652Z,82.70
2017-08-17T16:10:36.123Z,83.20
2017-08-17T16:13:03.586Z,82.40
2017-08-17T16:15:31.819Z,82.10
2017-08-17T16:17:59.272Z,82.00
2017-08-17T16:20:26.734Z,82.30
2017-08-17T16:22:54.202Z,82.00
2017-08-17T16:27:46.617Z,81.80
2017-08-17T16:30:14.066Z,82.30
2017-08-17T16:32:41.559Z,82.10
2017-08-17T16:35:09.024Z,82.30
2017-08-17T16:37:36.495Z,81.90
2017-08-17T16:40:03.958Z,82.20
2017-08-17T16:42:31.407Z,82.30
2017-08-17T16:44:58.890Z,82.10
2017-08-17T16:47:27.110Z,82.10
2017-08-17T16:49:54.579Z,82.10
2017-08-17T16:52:22.047Z,82.20
2017-08-17T16:54:49.508Z,82.10
2017-08-17T16:57:16.974Z,81.90
2017-08-17T16:59:45.214Z,81.10
2017-08-17T17:02:12.701Z,82.20
2017-08-17T17:04:40.150Z,81.20
2017-08-17T17:07:07.610Z,81.30
2017-08-17T17:09:35.083Z,81.10
2017-08-17T17:12:03.320Z,81.30
2017-08-17T17:14:30.779Z,81.30
2017-08-17T17:16:58.273Z,81.30
2017-08-17T17:19:26.507Z,81.50
2017-08-17T17:21:53.971Z,81.50
2017-08-17T17:24:21.450Z,81.10
2017-08-17T17:26:49.670Z,81.50
2017-08-17T17:29:17.134Z,81.40
2017-08-17T17:31:44.613Z,81.50
2017-08-17T17:34:12.083Z,81.50
2017-08-17T17:36:39.575Z,81.50
2017-08-17T17:39:07.026Z,81.70
2017-08-17T17:41:34.499Z,81.40
2017-08-17T17:44:01.964Z,81.80
2017-08-17T17:46:29.430Z,82.00
2017-08-17T17:48:56.904Z,82.10
2017-08-17T17:51:24.361Z,82.10
2017-08-17T17:53:51.835Z,82.10
2017-08-17T17:56:19.298Z,82.20
2017-08-17T17:58:46.797Z,82.30
2017-08-17T18:01:14.271Z,82.50
2017-08-17T18:03:41.743Z,82.20
2017-08-17T18:06:09.222Z,82.50
2017-08-17T18:08:36.671Z,82.70
2017-08-17T18:11:04.157Z,83.00
2017-08-17T18:13:32.637Z,83.20
2017-08-17T18:16:00.961Z,83.40
2017-08-17T18:18:28.423Z,83.20
2017-08-17T18:20:55.902Z,83.90
2017-08-17T18:23:23.363Z,84.40
2017-08-17T18:25:50.839Z,85.00
2017-08-17T18:28:19.077Z,85.30
2017-08-17T18:30:46.540Z,85.20
2017-08-17T18:33:14.061Z,86.20
2017-08-17T18:35:41.541Z,86.60
2017-08-17T18:38:09.000Z,86.50
2017-08-17T18:40:36.470Z,86.70
2017-08-17T18:43:03.941Z,87.10
2017-08-17T18:45:31.415Z,88.10
2017-08-17T18:47:59.639Z,88.70
2017-08-17T18:50:27.106Z,88.70
2017-08-17T18:52:54.572Z,88.60
2017-08-17T18:55:22.040Z,88.90
2017-08-17T18:57:50.276Z,89.70
2017-08-17T19:00:17.739Z,89.70
2017-08-17T19:02:45.208Z,89.00
2017-08-17T19:05:12.676Z,89.20
2017-08-17T19:07:40.154Z,89.40
2017-08-17T19:10:08.403Z,89.60
2017-08-17T19:12:35.880Z,89.60
2017-08-17T19:15:04.127Z,89.60
2017-08-17T19:17:31.580Z,89.50
2017-08-17T19:19:59.052Z,89.80
2017-08-17T19:22:26.509Z,90.00
2017-08-17T19:24:53.987Z,90.00
2017-08-17T19:27:22.210Z,90.00
2017-08-17T19:29:49.676Z,90.00
2017-08-17T19:32:17.149Z,90.00
2017-08-17T19:34:44.612Z,90.10
2017-08-17T19:37:12.088Z,90.20
2017-08-17T19:39:40.307Z,90.50
2017-08-17T19:42:07.764Z,90.10
2017-08-17T19:44:35.231Z,90.10
2017-08-17T19:47:02.687Z,90.20
2017-08-17T19:49:30.175Z,90.20
2017-08-17T19:51:58.439Z,90.20
2017-08-17T19:54:25.931Z,90.20
2017-08-17T19:56:54.150Z,90.10
2017-08-17T19:59:21.635Z,90.10
2017-08-17T20:01:49.083Z,90.10
2017-08-17T20:04:16.550Z,90.10
2017-08-17T20:06:44.779Z,90.40
2017-08-17T20:09:12.231Z,90.10
2017-08-17T20:11:39.698Z,90.20
2017-08-17T20:14:07.175Z,90.30
2017-08-17T20:16:34.659Z,90.30
2017-08-17T20:19:02.118Z,90.40
2017-08-17T20:21:30.339Z,90.50
2017-08-17T20:23:57.802Z,90.50
2017-08-17T20:26:25.251Z,90.50
2017-08-17T20:28:52.720Z,90.60
2017-08-17T20:31:20.195Z,90.50
2017-08-17T20:33:47.670Z,90.60
2017-08-17T20:36:15.895Z,90.50
2017-08-17T20:38:43.351Z,90.50
2017-08-17T20:41:10.818Z,90.50
2017-08-17T20:43:38.287Z,90.60
2017-08-17T20:46:05.766Z,90.70
2017-08-17T20:48:33.995Z,90.70
2017-08-17T20:51:01.452Z,90.70
2017-08-17T20:53:28.947Z,90.70
2017-08-17T20:55:56.399Z,90.90
2017-08-17T20:58:23.851Z,91.00
2017-08-17T21:00:51.323Z,91.30
2017-08-17T21:03:19.556Z,92.00
2017-08-17T21:05:47.036Z,91.80
2017-08-17T21:08:14.503Z,91.90
2017-08-17T21:10:41.975Z,92.10
2017-08-17T21:13:10.196Z,92.40
2017-08-17T21:15:37.675Z,92.40
2017-08-17T21:18:05.133Z,92.50
2017-08-17T21:20:32.621Z,92.70
2017-08-17T21:23:00.855Z,92.90
2017-08-17T21:25:28.310Z,92.80
2017-08-17T21:27:55.788Z,92.90
2017-08-17T21:30:23.257Z,92.90
2017-08-17T21:32:51.504Z,93.10
2017-08-17T21:35:18.989Z,93.10
2017-08-17T21:37:47.219Z,93.10
2017-08-17T21:40:14.683Z,93.10
2017-08-17T21:42:42.143Z,93.20
2017-08-17T21:45:09.618Z,93.30
2017-08-17T21:47:37.126Z,93.30
2017-08-17T21:50:04.581Z,93.30
2017-08-17T21:52:32.059Z,93.40
2017-08-17T21:54:59.526Z,93.40
2017-08-17T21:57:26.984Z,93.40
2017-08-17T21:59:54.459Z,93.40
2017-08-17T22:02:21.923Z,93.50
2017-08-17T22:04:50.162Z,93.60
2017-08-17T22:07:17.639Z,93.60
2017-08-17T22:09:45.102Z,93.80
2017-08-17T22:12:12.578Z,93.80
2017-08-17T22:14:40.816Z,94.10
2017-08-17T22:17:08.283Z,94.10
2017-08-17T22:19:35.771Z,94.20
2017-08-17T22:22:04.013Z,94.30
2017-08-17T22:24:31.484Z,94.20
2017-08-17T22:26:59.715Z,94.20
2017-08-17T22:29:27.174Z,94.20
2017-08-17T22:31:54.625Z,94.30
2017-08-17T22:34:22.103Z,94.40
2017-08-17T22:36:49.567Z,94.40
2017-08-17T22:39:17.032Z,94.40
2017-08-17T22:41:44.515Z,94.50
2017-08-17T22:44:12.735Z,94.30
2017-08-17T22:46:40.198Z,94.30
2017-08-17T22:49:07.667Z,94.40
2017-08-17T22:51:35.135Z,94.30
2017-08-17T22:54:02.606Z,94.40
2017-08-17T22:56:30.853Z,94.50
2017-08-17T22:58:58.310Z,94.50
2017-08-17T23:01:25.783Z,94.60
2017-08-17T23:03:53.251Z,94.60
2017-08-17T23:06:21.504Z,94.60
2017-08-17T23:08:48.970Z,94.60
2017-08-17T23:11:17.194Z,94.90
2017-08-17T23:13:45.388Z,94.70
2017-08-17T23:16:12.838Z,94.70
2017-08-17T23:18:40.320Z,94.80
2017-08-17T23:21:07.799Z,94.80
2017-08-17T23:23:36.031Z,94.90
2017-08-17T23:26:03.499Z,94.90
2017-08-17T23:28:30.981Z,95.00
2017-08-17T23:30:59.208Z,95.20
2017-08-17T23:33:26.691Z,95.10
2017-08-17T23:35:54.161Z,95.30
2017-08-17T23:38:21.622Z,95.30
2017-08-17T23:40:49.099Z,95.30
2017-08-17T23:43:16.550Z,95.30
2017-08-17T23:45:44.774Z,95.30
2017-08-17T23:48:12.258Z,95.30
2017-08-17T23:50:39.722Z,95.50
2017-08-17T23:53:07.962Z,95.10
2017-08-17T23:55:35.419Z,95.10
2017-08-17T23:58:02.895Z,94.90
